createdAt,value
2019-02-09T00:00:53.099Z,76.43
2019-02-09T00:01:53.087Z,76.53
2019-02-09T00:02:53.076Z,76.74
2019-02-09T00:03:53.063Z,76.32
2019-02-09T00:04:53.053Z,76.53
2019-02-09T00:05:53.044Z,76.64
2019-02-09T00:06:53.030Z,77.09
2019-02-09T00:07:53.040Z,76.95
2019-02-09T00:08:53.015Z,76.84
2019-02-09T00:09:52.997Z,76.98
2019-02-09T00:10:52.988Z,77.05
2019-02-09T00:11:52.974Z,76.74
2019-02-09T00:12:52.968Z,76.95
2019-02-09T00:13:52.957Z,76.43
2019-02-09T00:14:52.941Z,76.32
2019-02-09T00:15:52.931Z,76.23
2019-02-09T00:16:52.918Z,75.92
2019-02-09T00:17:52.909Z,74.98
2019-02-09T00:18:52.900Z,75.29
2019-02-09T00:19:52.888Z,75.50
2019-02-09T00:20:52.876Z,75.92
2019-02-09T00:21:52.864Z,74.53
2019-02-09T00:22:52.856Z,75.60
2019-02-09T00:23:52.845Z,75.71
2019-02-09T00:24:52.831Z,75.60
2019-02-09T00:25:52.823Z,75.29
2019-02-09T00:26:52.809Z,75.60
2019-02-09T00:27:52.807Z,75.29
2019-02-09T00:28:52.790Z,75.57
2019-02-09T00:29:52.777Z,74.84
2019-02-09T00:30:52.770Z,74.95
2019-02-09T00:31:52.755Z,74.63
2019-02-09T00:32:52.745Z,74.43
2019-02-09T00:33:52.736Z,74.74
2019-02-09T00:34:52.721Z,74.43
2019-02-09T00:35:52.711Z,74.12
2019-02-09T00:36:52.700Z,74.32
2019-02-09T00:37:52.688Z,74.02
2019-02-09T00:38:52.677Z,74.12
2019-02-09T00:39:52.666Z,74.02
2019-02-09T00:40:52.656Z,74.43
2019-02-09T00:41:52.647Z,74.02
2019-02-09T00:42:52.637Z,73.91
2019-02-09T00:43:52.623Z,74.22
2019-02-09T00:44:52.611Z,74.02
2019-02-09T00:45:52.604Z,73.81
2019-02-09T00:46:52.592Z,73.71
2019-02-09T00:47:52.583Z,73.81
2019-02-09T00:48:52.576Z,73.39
2019-02-09T00:49:52.573Z,73.39
2019-02-09T00:50:52.545Z,73.39
2019-02-09T00:51:52.536Z,73.60
2019-02-09T00:52:52.523Z,73.50
2019-02-09T00:53:52.513Z,73.50
2019-02-09T00:54:52.505Z,73.91
2019-02-09T00:55:52.490Z,73.19
2019-02-09T00:56:52.479Z,73.60
2019-02-09T00:57:52.470Z,73.19
2019-02-09T00:58:52.457Z,72.98
2019-02-09T00:59:54.148Z,73.39
2019-02-09T01:00:52.435Z,73.01
2019-02-09T01:01:52.425Z,72.98
2019-02-09T01:02:52.412Z,73.71
2019-02-09T01:03:52.404Z,73.60
2019-02-09T01:04:52.398Z,72.77
2019-02-09T01:05:52.380Z,72.56
2019-02-09T01:06:52.371Z,72.67
2019-02-09T01:07:52.381Z,73.19
2019-02-09T01:08:52.355Z,72.77
2019-02-09T01:09:52.337Z,72.67
2019-02-09T01:10:52.329Z,72.36
2019-02-09T01:11:52.319Z,72.36
2019-02-09T01:12:52.306Z,72.46
2019-02-09T01:13:52.295Z,72.56
2019-02-09T01:14:52.283Z,72.77
2019-02-09T01:15:52.270Z,72.81
2019-02-09T01:16:52.264Z,72.56
2019-02-09T01:17:52.249Z,72.56
2019-02-09T01:18:52.244Z,72.46
2019-02-09T01:19:52.226Z,72.36
2019-02-09T01:20:52.218Z,73.39
2019-02-09T01:21:52.214Z,73.60
2019-02-09T01:22:52.194Z,73.29
2019-02-09T01:23:52.183Z,72.81
2019-02-09T01:24:52.172Z,73.22
2019-02-09T01:25:52.181Z,72.71
2019-02-09T01:26:52.152Z,73.84
2019-02-09T01:27:52.155Z,72.91
2019-02-09T01:28:52.129Z,73.01
2019-02-09T01:29:52.116Z,73.01
2019-02-09T01:30:52.105Z,73.74
2019-02-09T01:31:52.095Z,73.94
2019-02-09T01:32:52.088Z,73.53
2019-02-09T01:33:52.077Z,73.22
2019-02-09T01:34:52.061Z,73.01
2019-02-09T01:35:52.051Z,73.22
2019-02-09T01:36:52.039Z,72.71
2019-02-09T01:37:52.032Z,72.81
2019-02-09T01:38:52.024Z,73.84
2019-02-09T01:39:52.006Z,72.39
2019-02-09T01:40:51.997Z,72.60
2019-02-09T01:41:51.985Z,72.71
2019-02-09T01:42:51.976Z,73.11
2019-02-09T01:43:51.962Z,72.50
2019-02-09T01:44:51.952Z,72.60
2019-02-09T01:45:51.943Z,72.91
2019-02-09T01:46:51.930Z,72.71
2019-02-09T01:47:51.922Z,72.50
2019-02-09T01:48:51.909Z,72.29
2019-02-09T01:49:51.897Z,71.88
2019-02-09T01:50:51.908Z,71.98
2019-02-09T01:51:51.891Z,71.98
2019-02-09T01:52:51.864Z,72.39
2019-02-09T01:53:51.854Z,72.39
2019-02-09T01:54:51.843Z,72.32
2019-02-09T01:55:51.863Z,72.91
2019-02-09T01:56:51.822Z,72.08
2019-02-09T01:57:51.811Z,72.91
2019-02-09T01:58:51.796Z,72.60
2019-02-09T01:59:51.789Z,72.63
2019-02-09T02:00:51.775Z,72.50
2019-02-09T02:01:51.765Z,72.53
2019-02-09T02:02:51.753Z,72.60
2019-02-09T02:03:51.742Z,72.53
2019-02-09T02:04:51.733Z,72.53
2019-02-09T02:05:51.721Z,72.53
2019-02-09T02:06:51.711Z,72.63
2019-02-09T02:07:51.706Z,73.05
2019-02-09T02:08:51.687Z,72.74
2019-02-09T02:09:51.677Z,72.84
2019-02-09T02:10:51.666Z,72.63
2019-02-09T02:11:51.658Z,73.36
2019-02-09T02:12:51.645Z,72.74
2019-02-09T02:13:51.635Z,73.25
2019-02-09T02:14:51.624Z,72.53
2019-02-09T02:15:51.614Z,72.53
2019-02-09T02:16:51.599Z,72.53
2019-02-09T02:17:51.589Z,73.25
2019-02-09T02:18:51.579Z,73.05
2019-02-09T02:19:51.567Z,72.84
2019-02-09T02:20:51.556Z,73.25
2019-02-09T02:21:51.547Z,73.05
2019-02-09T02:22:51.535Z,73.57
2019-02-09T02:23:51.525Z,72.74
2019-02-09T02:24:51.513Z,73.18
2019-02-09T02:25:51.500Z,73.39
2019-02-09T02:26:51.495Z,73.49
2019-02-09T02:27:51.478Z,73.39
2019-02-09T02:28:51.468Z,73.05
2019-02-09T02:29:51.458Z,73.57
2019-02-09T02:30:51.445Z,73.70
2019-02-09T02:31:51.435Z,73.77
2019-02-09T02:32:51.730Z,73.08
2019-02-09T02:33:51.421Z,72.94
2019-02-09T02:34:51.455Z,73.28
2019-02-09T02:35:51.394Z,73.15
2019-02-09T02:36:51.382Z,72.53
2019-02-09T02:37:51.371Z,72.56
2019-02-09T02:38:51.358Z,73.08
2019-02-09T02:39:51.359Z,73.18
2019-02-09T02:40:51.351Z,72.67
2019-02-09T02:41:51.330Z,72.46
2019-02-09T02:42:51.316Z,72.84
2019-02-09T02:43:51.304Z,72.84
2019-02-09T02:44:51.296Z,72.42
2019-02-09T02:45:51.368Z,72.56
2019-02-09T02:46:51.274Z,72.53
2019-02-09T02:47:51.282Z,72.84
2019-02-09T02:48:51.249Z,72.77
2019-02-09T02:49:51.238Z,72.98
2019-02-09T02:50:51.231Z,72.67
2019-02-09T02:51:51.221Z,72.42
2019-02-09T02:52:51.208Z,72.36
2019-02-09T02:53:51.196Z,72.22
2019-02-09T02:54:51.193Z,72.15
2019-02-09T02:55:51.171Z,72.22
2019-02-09T02:56:51.159Z,72.01
2019-02-09T02:57:51.153Z,71.59
2019-02-09T02:58:51.138Z,71.80
2019-02-09T02:59:51.127Z,71.59
2019-02-09T03:00:51.120Z,71.59
2019-02-09T03:01:51.104Z,71.70
2019-02-09T03:02:51.095Z,71.91
2019-02-09T03:03:51.086Z,71.70
2019-02-09T03:04:51.074Z,71.39
2019-02-09T03:05:51.062Z,71.28
2019-02-09T03:06:51.050Z,71.28
2019-02-09T03:07:51.041Z,71.08
2019-02-09T03:08:51.029Z,71.18
2019-02-09T03:09:51.022Z,70.87
2019-02-09T03:10:51.009Z,71.39
2019-02-09T03:11:50.997Z,71.49
2019-02-09T03:12:50.985Z,71.80
2019-02-09T03:13:50.974Z,70.87
2019-02-09T03:14:50.966Z,71.22
2019-02-09T03:16:10.577Z,71.32
2019-02-09T03:17:32.980Z,70.87
2019-02-09T03:18:51.100Z,70.67
2019-02-09T03:20:14.508Z,70.56
2019-02-09T03:21:34.120Z,71.18
2019-02-09T03:22:56.525Z,70.67
2019-02-09T03:24:14.648Z,70.59
2019-02-09T03:27:25.607Z,70.46
2019-02-09T03:28:07.462Z,69.94
2019-02-09T03:29:49.003Z,70.49
2019-02-09T03:31:08.630Z,70.46
2019-02-09T03:32:20.009Z,69.84
2019-02-09T03:33:39.583Z,69.53
2019-02-09T03:35:21.158Z,69.42
2019-02-09T03:37:31.943Z,69.84
2019-02-09T03:39:59.872Z,69.32
2019-02-09T03:41:18.995Z,69.21
2019-02-09T03:42:41.396Z,68.98
2019-02-09T03:44:01.007Z,68.90
2019-02-09T03:45:22.931Z,69.60
2019-02-09T03:46:22.906Z,69.42
2019-02-09T03:48:04.447Z,69.49
2019-02-09T03:49:04.434Z,69.39
2019-02-09T03:50:35.394Z,69.39
2019-02-09T03:51:35.382Z,68.87
2019-02-09T03:52:35.372Z,67.63
2019-02-09T03:53:35.375Z,67.73
2019-02-09T03:54:35.348Z,67.32
2019-02-09T03:55:35.338Z,67.63
2019-02-09T03:56:35.327Z,67.32
2019-02-09T03:57:35.315Z,66.97
2019-02-09T03:58:35.306Z,67.52
2019-02-09T03:59:35.299Z,67.39
2019-02-09T04:00:35.283Z,66.87
2019-02-09T04:01:35.271Z,67.08
2019-02-09T04:02:35.261Z,66.87
2019-02-09T04:03:35.251Z,66.46
2019-02-09T04:04:35.237Z,66.25
2019-02-09T04:05:35.230Z,65.63
2019-02-09T04:06:35.215Z,65.29
2019-02-09T04:07:35.206Z,65.19
2019-02-09T04:08:35.193Z,64.98
2019-02-09T04:09:35.182Z,65.19
2019-02-09T04:10:35.173Z,65.70
2019-02-09T04:11:35.160Z,64.98
2019-02-09T04:12:35.148Z,65.19
2019-02-09T04:13:35.140Z,64.98
2019-02-09T04:14:35.129Z,65.29
2019-02-09T04:15:35.118Z,64.98
2019-02-09T04:16:35.111Z,65.08
2019-02-09T04:17:35.096Z,65.50
2019-02-09T04:18:35.085Z,64.77
2019-02-09T04:19:35.072Z,64.98
2019-02-09T04:20:35.061Z,65.08
2019-02-09T04:21:35.048Z,65.08
2019-02-09T04:22:35.038Z,64.77
2019-02-09T04:23:35.030Z,65.05
2019-02-09T04:24:35.019Z,64.64
2019-02-09T04:25:35.007Z,65.26
2019-02-09T04:26:34.994Z,64.95
2019-02-09T04:27:34.988Z,64.84
2019-02-09T04:28:34.972Z,64.53
2019-02-09T04:29:35.020Z,64.23
2019-02-09T04:30:34.950Z,64.32
2019-02-09T04:31:34.939Z,64.12
2019-02-09T04:32:34.931Z,63.99
2019-02-09T04:33:34.920Z,63.78
2019-02-09T04:34:34.909Z,63.57
2019-02-09T04:35:34.895Z,63.57
2019-02-09T04:36:34.882Z,63.16
2019-02-09T04:37:34.872Z,63.47
2019-02-09T04:38:34.900Z,62.13
2019-02-09T04:39:34.865Z,63.06
2019-02-09T04:40:34.837Z,63.57
2019-02-09T04:41:34.827Z,63.37
2019-02-09T04:42:34.815Z,62.44
2019-02-09T04:43:34.805Z,62.41
2019-02-09T04:44:34.801Z,62.65
2019-02-09T04:45:34.783Z,62.75
2019-02-09T04:46:34.772Z,62.44
2019-02-09T04:47:34.763Z,62.51
2019-02-09T04:48:34.751Z,62.65
2019-02-09T04:49:34.737Z,62.93
2019-02-09T04:50:34.726Z,62.72
2019-02-09T04:51:34.714Z,62.54
2019-02-09T04:52:34.702Z,62.30
2019-02-09T04:53:34.694Z,62.44
2019-02-09T04:54:34.682Z,62.20
2019-02-09T04:55:34.672Z,61.99
2019-02-09T04:56:34.660Z,62.10
2019-02-09T04:57:34.647Z,61.69
2019-02-09T04:58:34.639Z,62.10
2019-02-09T04:59:34.626Z,61.69
2019-02-09T05:00:34.619Z,61.48
2019-02-09T05:01:34.612Z,61.79
2019-02-09T05:02:34.593Z,61.69
2019-02-09T05:03:34.585Z,61.89
2019-02-09T05:04:34.571Z,62.17
2019-02-09T05:05:34.561Z,61.69
2019-02-09T05:06:34.550Z,61.55
2019-02-09T05:07:34.537Z,61.66
2019-02-09T05:08:34.527Z,61.55
2019-02-09T05:09:34.515Z,61.17
2019-02-09T05:10:34.504Z,61.38
2019-02-09T05:11:34.520Z,61.45
2019-02-09T05:12:34.487Z,61.35
2019-02-09T05:13:34.470Z,61.89
2019-02-09T05:14:34.458Z,61.55
2019-02-09T05:15:34.447Z,61.66
2019-02-09T05:16:34.439Z,61.35
2019-02-09T05:17:34.434Z,60.83
2019-02-09T05:18:34.414Z,60.73
2019-02-09T05:19:34.435Z,61.55
2019-02-09T05:20:34.393Z,60.28
2019-02-09T05:21:34.382Z,61.24
2019-02-09T05:22:34.371Z,60.73
2019-02-09T05:23:34.360Z,60.70
2019-02-09T05:24:34.349Z,60.73
2019-02-09T05:25:34.336Z,60.70
2019-02-09T05:26:34.331Z,60.39
2019-02-09T05:27:34.313Z,61.42
2019-02-09T05:28:34.309Z,60.42
2019-02-09T05:29:34.293Z,60.91
2019-02-09T05:30:34.281Z,60.80
2019-02-09T05:31:34.279Z,60.70
2019-02-09T05:32:34.258Z,61.22
2019-02-09T05:33:34.250Z,60.60
2019-02-09T05:34:34.237Z,60.49
2019-02-09T05:35:34.230Z,60.60
2019-02-09T05:36:34.215Z,60.80
2019-02-09T05:37:34.203Z,60.28
2019-02-09T05:38:34.193Z,61.42
2019-02-09T05:39:34.191Z,60.80
2019-02-09T05:40:34.177Z,60.80
2019-02-09T05:41:34.159Z,61.52
2019-02-09T05:42:34.148Z,61.11
2019-02-09T05:43:34.144Z,61.22
2019-02-09T05:44:34.131Z,61.32
2019-02-09T05:45:34.120Z,60.60
2019-02-09T05:46:34.103Z,61.42
2019-02-09T05:47:34.093Z,61.73
2019-02-09T05:48:34.081Z,62.46
2019-02-09T05:49:34.071Z,62.46
2019-02-09T05:50:34.058Z,62.97
2019-02-09T05:51:34.050Z,63.18
2019-02-09T05:52:34.036Z,63.79
2019-02-09T05:53:34.025Z,64.11
2019-02-09T05:54:34.016Z,64.00
2019-02-09T05:55:34.003Z,64.55
2019-02-09T05:56:34.005Z,65.03
2019-02-09T05:57:33.988Z,64.96
2019-02-09T05:58:33.969Z,65.24
2019-02-09T05:59:33.958Z,66.51
2019-02-09T06:00:33.946Z,66.93
2019-02-09T06:01:33.937Z,66.93
2019-02-09T06:02:33.940Z,66.20
2019-02-09T06:03:33.913Z,65.48
2019-02-09T06:04:33.902Z,66.20
2019-02-09T06:05:33.896Z,66.41
2019-02-09T06:06:33.881Z,66.30
2019-02-09T06:07:33.869Z,66.72
2019-02-09T06:08:33.861Z,65.89
2019-02-09T06:09:33.852Z,66.00
2019-02-09T06:10:33.835Z,66.51
2019-02-09T06:11:33.828Z,66.00
2019-02-09T06:12:33.819Z,66.51
2019-02-09T06:13:33.814Z,66.72
2019-02-09T06:14:33.790Z,66.51
2019-02-09T06:15:33.783Z,66.51
2019-02-09T06:16:33.769Z,66.41
2019-02-09T06:17:33.761Z,66.93
2019-02-09T06:18:33.749Z,66.41
2019-02-09T06:19:33.735Z,67.03
2019-02-09T06:20:33.726Z,66.93
2019-02-09T06:21:33.714Z,66.93
2019-02-09T06:22:33.703Z,67.44
2019-02-09T06:23:33.691Z,67.13
2019-02-09T06:24:33.683Z,66.93
2019-02-09T06:25:33.675Z,68.68
2019-02-09T06:26:33.657Z,68.58
2019-02-09T06:27:33.647Z,68.37
2019-02-09T06:28:33.636Z,69.30
2019-02-09T06:29:33.628Z,69.40
2019-02-09T06:30:33.612Z,70.33
2019-02-09T06:31:40.600Z,70.88
2019-02-09T06:32:34.590Z,70.23
2019-02-09T06:33:33.578Z,71.57
2019-02-09T06:34:33.568Z,72.19
2019-02-09T06:35:33.556Z,72.53
2019-02-09T06:36:33.546Z,73.57
2019-02-09T06:37:33.533Z,73.47
2019-02-09T06:38:33.525Z,73.98
2019-02-09T06:39:33.514Z,73.67
2019-02-09T06:40:33.508Z,74.08
2019-02-09T06:41:33.493Z,73.36
2019-02-09T06:42:33.484Z,74.19
2019-02-09T06:43:33.471Z,73.98
2019-02-09T06:44:33.456Z,74.40
2019-02-09T06:45:33.449Z,74.71
2019-02-09T06:46:33.436Z,74.84
2019-02-09T06:47:33.424Z,74.81
2019-02-09T06:48:33.414Z,75.88
2019-02-09T06:49:33.406Z,75.84
2019-02-09T06:50:33.389Z,75.74
2019-02-09T06:51:33.378Z,76.26
2019-02-09T06:52:33.369Z,75.98
2019-02-09T06:53:33.358Z,75.63
2019-02-09T06:54:33.348Z,76.60
2019-02-09T06:55:33.341Z,74.81
2019-02-09T06:56:33.323Z,76.39
2019-02-09T06:57:33.316Z,76.39
2019-02-09T06:58:33.308Z,76.81
2019-02-09T06:59:33.290Z,75.98
2019-02-09T07:00:33.279Z,76.26
2019-02-09T07:01:33.269Z,75.63
2019-02-09T07:02:33.259Z,75.74
2019-02-09T07:03:33.254Z,75.53
2019-02-09T07:04:33.247Z,76.09
2019-02-09T07:05:33.223Z,75.98
2019-02-09T07:06:33.217Z,76.18
2019-02-09T07:07:33.201Z,75.74
2019-02-09T07:08:33.189Z,75.22
2019-02-09T07:09:33.180Z,75.22
2019-02-09T07:10:33.183Z,76.46
2019-02-09T07:11:33.156Z,76.46
2019-02-09T07:12:33.146Z,76.70
2019-02-09T07:13:33.135Z,77.33
2019-02-09T07:14:33.125Z,77.81
2019-02-09T07:15:33.115Z,78.15
2019-02-09T07:16:33.101Z,77.81
2019-02-09T07:17:33.093Z,78.25
2019-02-09T07:18:33.080Z,78.42
2019-02-09T07:19:33.247Z,78.36
2019-02-09T07:20:33.070Z,78.77
2019-02-09T07:21:33.047Z,77.94
2019-02-09T07:22:33.034Z,78.88
2019-02-09T07:23:33.023Z,78.36
2019-02-09T07:24:33.039Z,78.42
2019-02-09T07:25:33.003Z,78.88
2019-02-09T07:26:33.033Z,78.88
2019-02-09T07:27:32.986Z,78.25
2019-02-09T07:28:32.968Z,78.56
2019-02-09T07:29:32.960Z,78.36
2019-02-09T07:30:33.098Z,78.22
2019-02-09T07:31:32.933Z,78.05
2019-02-09T07:32:32.922Z,78.42
2019-02-09T07:33:32.912Z,78.11
2019-02-09T07:34:32.952Z,78.36
2019-02-09T07:35:32.892Z,78.56
2019-02-09T07:36:32.879Z,78.63
2019-02-09T07:37:32.869Z,79.15
2019-02-09T07:38:32.860Z,79.91
2019-02-09T07:39:32.849Z,80.08
2019-02-09T07:40:32.838Z,80.08
2019-02-09T07:41:32.824Z,80.39
2019-02-09T07:42:32.812Z,80.18
2019-02-09T07:43:32.801Z,80.43
2019-02-09T07:44:32.789Z,80.43
2019-02-09T07:45:32.780Z,80.84
2019-02-09T07:46:32.766Z,81.32
2019-02-09T07:47:32.755Z,81.11
2019-02-09T07:48:32.747Z,80.90
2019-02-09T07:49:32.734Z,81.15
2019-02-09T07:50:32.722Z,81.56
2019-02-09T07:51:32.711Z,81.11
2019-02-09T07:52:32.700Z,81.63
2019-02-09T07:53:32.689Z,81.42
2019-02-09T07:54:32.680Z,81.21
2019-02-09T07:55:32.669Z,81.32
2019-02-09T07:56:32.685Z,81.32
2019-02-09T07:57:32.658Z,81.42
2019-02-09T07:58:32.635Z,81.73
2019-02-09T07:59:32.621Z,81.63
2019-02-09T08:00:32.641Z,82.04
2019-02-09T08:01:32.599Z,82.04
2019-02-09T08:02:32.588Z,82.04
2019-02-09T08:03:32.577Z,82.00
2019-02-09T08:04:32.595Z,82.04
2019-02-09T08:05:32.554Z,82.45
2019-02-09T08:06:32.547Z,82.45
2019-02-09T08:07:32.576Z,82.73
2019-02-09T08:08:32.521Z,82.83
2019-02-09T08:09:32.546Z,82.76
2019-02-09T08:10:32.501Z,83.18
2019-02-09T08:11:32.494Z,83.86
2019-02-09T08:12:32.477Z,84.28
2019-02-09T08:13:32.473Z,84.73
2019-02-09T08:14:32.463Z,84.28
2019-02-09T08:15:32.449Z,84.52
2019-02-09T08:16:32.433Z,84.48
2019-02-09T08:17:32.422Z,84.38
2019-02-09T08:18:32.435Z,84.38
2019-02-09T08:19:32.398Z,84.59
2019-02-09T08:20:32.390Z,85.14
2019-02-09T08:21:32.376Z,84.21
2019-02-09T08:22:32.370Z,84.69
2019-02-09T08:23:32.377Z,84.79
2019-02-09T08:24:32.371Z,86.59
2019-02-09T08:25:32.356Z,85.86
2019-02-09T08:26:32.322Z,86.49
2019-02-09T08:27:32.310Z,86.18
2019-02-09T08:28:32.297Z,86.38
2019-02-09T08:29:32.303Z,86.18
2019-02-09T08:30:32.291Z,86.28
2019-02-09T08:31:32.264Z,86.79
2019-02-09T08:32:32.281Z,87.00
2019-02-09T08:33:32.268Z,86.69
2019-02-09T08:34:32.235Z,86.76
2019-02-09T08:35:32.245Z,86.90
2019-02-09T08:36:32.215Z,86.13
2019-02-09T08:37:32.210Z,86.24
2019-02-09T08:38:32.244Z,86.51
2019-02-09T08:39:32.189Z,85.99
2019-02-09T08:40:32.179Z,85.58
2019-02-09T08:41:32.171Z,85.06
2019-02-09T08:42:32.146Z,84.86
2019-02-09T08:43:32.130Z,84.81
2019-02-09T08:44:32.119Z,84.55
2019-02-09T08:45:32.110Z,83.93
2019-02-09T08:46:32.118Z,84.34
2019-02-09T08:47:32.092Z,85.17
2019-02-09T08:48:32.086Z,84.75
2019-02-09T08:49:32.160Z,85.37
2019-02-09T08:50:32.067Z,84.75
2019-02-09T08:51:32.062Z,84.92
2019-02-09T08:52:32.031Z,85.47
2019-02-09T08:53:32.020Z,84.41
2019-02-09T08:54:32.015Z,84.44
2019-02-09T08:55:32.007Z,84.09
2019-02-09T08:56:31.984Z,84.34
2019-02-09T08:57:31.974Z,84.30
2019-02-09T08:58:31.962Z,84.03
2019-02-09T08:59:31.954Z,84.51
2019-02-09T09:00:31.939Z,84.75
2019-02-09T09:01:31.951Z,84.34
2019-02-09T09:02:31.950Z,84.81
2019-02-09T09:03:31.906Z,85.02
2019-02-09T09:04:31.895Z,84.81
2019-02-09T09:05:31.884Z,84.09
2019-02-09T09:06:31.875Z,84.09
2019-02-09T09:07:31.861Z,84.41
2019-02-09T09:08:31.850Z,83.99
2019-02-09T09:09:31.842Z,83.95
2019-02-09T09:10:31.870Z,83.44
2019-02-09T09:11:31.817Z,83.54
2019-02-09T09:12:31.806Z,82.98
2019-02-09T09:13:31.805Z,83.05
2019-02-09T09:14:31.784Z,82.64
2019-02-09T09:15:31.773Z,81.51
2019-02-09T09:16:31.761Z,80.65
2019-02-09T09:17:31.750Z,80.95
2019-02-09T09:18:31.762Z,80.19
2019-02-09T09:19:31.727Z,80.40
2019-02-09T09:20:31.719Z,79.47
2019-02-09T09:21:31.705Z,78.96
2019-02-09T09:22:31.693Z,78.99
2019-02-09T09:23:31.683Z,78.27
2019-02-09T09:24:31.672Z,77.10
2019-02-09T09:25:31.681Z,76.38
2019-02-09T09:26:31.649Z,75.63
2019-02-09T09:27:31.638Z,75.59
2019-02-09T09:28:31.628Z,75.80
2019-02-09T09:29:31.626Z,75.90
2019-02-09T09:30:31.623Z,76.07
2019-02-09T09:31:31.597Z,74.66
2019-02-09T09:32:31.582Z,73.61
2019-02-09T09:33:31.571Z,71.93
2019-02-09T09:34:31.561Z,70.26
2019-02-09T09:35:31.548Z,68.59
2019-02-09T09:36:31.539Z,69.03
2019-02-09T09:37:31.532Z,67.57
2019-02-09T09:38:31.557Z,68.11
2019-02-09T09:39:31.503Z,68.90
2019-02-09T09:40:31.492Z,68.18
2019-02-09T09:41:31.484Z,68.41
2019-02-09T09:42:31.471Z,68.62
2019-02-09T09:43:31.458Z,68.62
2019-02-09T09:44:31.447Z,68.76
2019-02-09T09:45:31.437Z,70.02
2019-02-09T09:46:31.429Z,70.67
2019-02-09T09:47:31.413Z,70.56
2019-02-09T09:48:31.402Z,70.97
2019-02-09T09:49:31.391Z,71.28
2019-02-09T09:50:31.380Z,71.62
2019-02-09T09:51:31.370Z,71.62
2019-02-09T09:52:31.359Z,72.03
2019-02-09T09:53:31.348Z,71.52
2019-02-09T09:54:31.336Z,71.93
2019-02-09T09:55:31.328Z,71.42
2019-02-09T09:56:31.314Z,70.97
2019-02-09T09:57:31.302Z,70.94
2019-02-09T09:58:31.294Z,69.47
2019-02-09T09:59:31.280Z,69.81
2019-02-09T10:00:31.268Z,69.92
2019-02-09T10:01:31.260Z,70.46
2019-02-09T10:02:36.474Z,70.02
2019-02-09T10:03:32.234Z,70.12
2019-02-09T10:04:31.223Z,69.89
2019-02-09T10:05:31.212Z,69.57
2019-02-09T10:06:31.200Z,68.76
2019-02-09T10:07:31.193Z,68.14
2019-02-09T10:08:31.178Z,68.32
2019-02-09T10:09:31.171Z,68.11
2019-02-09T10:10:31.157Z,68.76
2019-02-09T10:11:31.145Z,68.96
2019-02-09T10:12:31.135Z,70.09
2019-02-09T10:13:31.127Z,69.65
2019-02-09T10:14:31.116Z,70.16
2019-02-09T10:15:31.100Z,68.41
2019-02-09T10:16:31.090Z,68.76
2019-02-09T10:17:31.077Z,69.37
2019-02-09T10:18:31.066Z,69.89
2019-02-09T10:19:31.060Z,69.78
2019-02-09T10:20:31.048Z,69.68
2019-02-09T10:21:31.033Z,69.98
2019-02-09T10:22:31.021Z,68.86
2019-02-09T10:23:31.010Z,69.89
2019-02-09T10:24:30.999Z,68.76
2019-02-09T10:25:30.989Z,68.65
2019-02-09T10:26:30.991Z,68.45
2019-02-09T10:27:30.969Z,68.35
2019-02-09T10:28:30.955Z,68.35
2019-02-09T10:29:30.942Z,68.41
2019-02-09T10:30:30.934Z,67.83
2019-02-09T10:31:30.922Z,68.32
2019-02-09T10:32:30.909Z,66.88
2019-02-09T10:33:30.903Z,68.21
2019-02-09T10:34:30.888Z,67.08
2019-02-09T10:35:30.876Z,67.80
2019-02-09T10:36:30.865Z,67.70
2019-02-09T10:37:30.857Z,67.80
2019-02-09T10:38:30.844Z,66.67
2019-02-09T10:39:30.834Z,66.78
2019-02-09T10:40:30.830Z,66.57
2019-02-09T10:41:30.810Z,66.78
2019-02-09T10:42:30.803Z,66.57
2019-02-09T10:43:30.787Z,66.78
2019-02-09T10:44:30.776Z,66.54
2019-02-09T10:45:30.766Z,66.54
2019-02-09T10:46:30.753Z,65.93
2019-02-09T10:47:30.742Z,66.44
2019-02-09T10:48:30.731Z,66.03
2019-02-09T10:49:30.723Z,66.03
2019-02-09T10:50:30.710Z,65.62
2019-02-09T10:51:30.700Z,65.42
2019-02-09T10:52:30.689Z,64.50
2019-02-09T10:53:30.678Z,65.01
2019-02-09T10:54:30.671Z,64.67
2019-02-09T10:55:30.669Z,64.57
2019-02-09T10:56:30.642Z,64.67
2019-02-09T10:57:30.631Z,63.95
2019-02-09T10:58:30.620Z,64.26
2019-02-09T10:59:30.609Z,63.75
2019-02-09T11:00:30.598Z,63.54
2019-02-09T11:01:30.587Z,63.75
2019-02-09T11:02:30.577Z,63.31
2019-02-09T11:03:30.565Z,64.16
2019-02-09T11:04:30.552Z,62.90
2019-02-09T11:05:30.544Z,62.83
2019-02-09T11:06:30.531Z,62.59
2019-02-09T11:07:30.519Z,62.59
2019-02-09T11:08:30.508Z,62.62
2019-02-09T11:09:30.497Z,62.49
2019-02-09T11:10:30.491Z,61.88
2019-02-09T11:11:30.475Z,61.91
2019-02-09T11:12:30.464Z,61.98
2019-02-09T11:13:30.450Z,60.96
2019-02-09T11:14:30.441Z,61.26
2019-02-09T11:15:30.432Z,60.96
2019-02-09T11:16:30.418Z,61.06
2019-02-09T11:17:30.408Z,61.57
2019-02-09T11:18:30.394Z,61.06
2019-02-09T11:19:30.383Z,61.57
2019-02-09T11:20:30.372Z,63.18
2019-02-09T11:21:30.363Z,63.72
2019-02-09T11:22:30.351Z,64.20
2019-02-09T11:23:30.338Z,63.79
2019-02-09T11:24:30.326Z,60.42
2019-02-09T11:25:30.318Z,60.35
2019-02-09T11:26:30.303Z,60.11
2019-02-09T11:27:30.294Z,60.93
2019-02-09T11:28:30.282Z,60.01
2019-02-09T11:29:30.269Z,60.21
2019-02-09T11:30:30.258Z,60.52
2019-02-09T11:31:30.249Z,60.21
2019-02-09T11:32:30.237Z,59.63
2019-02-09T11:33:30.230Z,59.91
2019-02-09T11:34:30.215Z,60.31
2019-02-09T11:35:30.204Z,59.70
2019-02-09T11:36:30.191Z,59.70
2019-02-09T11:37:30.181Z,60.21
2019-02-09T11:38:30.171Z,60.52
2019-02-09T11:39:30.705Z,60.93
2019-02-09T11:40:30.146Z,59.70
2019-02-09T11:41:30.135Z,59.67
2019-02-09T11:42:30.125Z,59.70
2019-02-09T11:43:30.112Z,59.37
2019-02-09T11:44:30.105Z,59.39
2019-02-09T11:45:30.097Z,59.30
2019-02-09T11:46:30.080Z,59.19
2019-02-09T11:47:30.067Z,57.56
2019-02-09T11:48:30.058Z,58.48
2019-02-09T11:49:48.184Z,59.09
2019-02-09T11:51:18.727Z,57.76
2019-02-09T11:53:27.454Z,57.56
2019-02-09T11:55:56.385Z,56.81
2019-02-09T11:58:24.507Z,57.97
2019-02-09T11:59:24.494Z,57.86
2019-02-09T12:00:24.484Z,58.20
2019-02-09T12:01:24.473Z,58.70
2019-02-09T12:02:24.464Z,57.58
2019-02-09T12:03:24.451Z,58.17
2019-02-09T12:04:24.439Z,57.45
2019-02-09T12:05:24.433Z,56.94
2019-02-09T12:06:24.422Z,56.43
2019-02-09T12:07:24.405Z,56.33
2019-02-09T12:08:24.401Z,55.82
2019-02-09T12:09:24.385Z,55.82
2019-02-09T12:10:24.372Z,56.33
2019-02-09T12:11:24.361Z,55.82
2019-02-09T12:12:24.349Z,56.43
2019-02-09T12:13:43.962Z,56.23
2019-02-09T12:15:05.879Z,56.30
2019-02-09T12:17:53.021Z,58.07
2019-02-09T12:18:51.936Z,58.17
2019-02-09T12:20:15.348Z,57.58
2019-02-09T12:21:15.330Z,57.58
2019-02-09T12:22:56.868Z,58.70
2019-02-09T12:23:56.855Z,58.70
2019-02-09T12:25:38.397Z,57.89
2019-02-09T12:26:38.382Z,57.92
2019-02-09T12:28:19.918Z,57.61
2019-02-09T12:29:19.910Z,57.48
2019-02-09T12:30:50.870Z,58.09
2019-02-09T12:31:50.855Z,58.73
2019-02-09T12:32:50.892Z,58.43
2019-02-09T12:33:50.843Z,59.25
2019-02-09T12:34:50.826Z,59.76
2019-02-09T12:35:50.811Z,59.76
2019-02-09T12:36:50.802Z,60.27
2019-02-09T12:37:50.787Z,60.68
2019-02-09T12:38:50.776Z,61.32
2019-02-09T12:39:50.770Z,62.65
2019-02-09T12:40:50.765Z,63.06
2019-02-09T12:41:50.742Z,64.06
2019-02-09T12:42:50.735Z,63.44
2019-02-09T12:43:50.721Z,63.65
2019-02-09T12:44:50.708Z,64.16
2019-02-09T12:45:50.698Z,63.95
2019-02-09T12:46:50.687Z,63.75
2019-02-09T12:47:50.675Z,63.75
2019-02-09T12:48:50.669Z,63.88
2019-02-09T12:49:50.651Z,63.68
2019-02-09T12:50:50.648Z,63.98
2019-02-09T12:51:50.632Z,63.26
2019-02-09T12:52:50.618Z,63.88
2019-02-09T12:53:50.606Z,63.17
2019-02-09T12:54:50.596Z,63.26
2019-02-09T12:55:50.590Z,62.96
2019-02-09T12:56:50.589Z,63.06
2019-02-09T12:57:50.560Z,62.96
2019-02-09T12:58:50.550Z,62.45
2019-02-09T12:59:50.537Z,62.35
2019-02-09T13:00:50.526Z,61.73
2019-02-09T13:01:50.519Z,61.93
2019-02-09T13:02:50.504Z,62.14
2019-02-09T13:03:50.493Z,61.29
2019-02-09T13:04:50.485Z,61.60
2019-02-09T13:05:50.475Z,60.58
2019-02-09T13:06:50.463Z,60.99
2019-02-09T13:07:50.448Z,60.35
2019-02-09T13:08:50.438Z,60.85
2019-02-09T13:09:50.424Z,59.94
2019-02-09T13:10:50.414Z,60.65
2019-02-09T13:11:50.402Z,59.42
2019-02-09T13:12:50.392Z,59.83
2019-02-09T13:13:50.380Z,59.01
2019-02-09T13:14:50.368Z,58.70